sensor_id;sensor_type;location;lat;lon;timestamp;temperature;humidity
26051;DHT22;13825;53.496;10.020;2023-06-26T00:01:10;19.50;99.90
26051;DHT22;13825;53.496;10.020;2023-06-26T00:03:37;19.50;99.90
26051;DHT22;13825;53.496;10.020;2023-06-26T00:06:04;19.50;99.90
26051;DHT22;13825;53.496;10.020;2023-06-26T00:08:31;19.50;99.90
26051;DHT22;13825;53.496;10.020;2023-06-26T00:10:58;19.40;99.90
26051;DHT22;13825;53.496;10.020;2023-06-26T00:13:26;19.40;99.90
26051;DHT22;13825;53.496;10.020;2023-06-26T00:15:53;19.30;99.90
26051;DHT22;13825;53.496;10.020;2023-06-26T00:18:20;19.30;99.90
26051;DHT22;13825;53.496;10.020;2023-06-26T00:20:51;19.30;99.90
26051;DHT22;13825;53.496;10.020;2023-06-26T00:23:21;19.30;99.90
26051;DHT22;13825;53.496;10.020;2023-06-26T00:25:48;19.20;99.90
26051;DHT22;13825;53.496;10.020;2023-06-26T00:28:15;19.20;99.90
26051;DHT22;13825;53.496;10.020;2023-06-26T00:30:44;19.20;99.90
26051;DHT22;13825;53.496;10.020;2023-06-26T00:33:11;19.20;99.90
26051;DHT22;13825;53.496;10.020;2023-06-26T00:35:40;19.20;99.90
26051;DHT22;13825;53.496;10.020;2023-06-26T00:38:06;19.20;99.90
26051;DHT22;13825;53.496;10.020;2023-06-26T00:40:36;19.20;99.90
26051;DHT22;13825;53.496;10.020;2023-06-26T00:43:03;19.20;99.90
26051;DHT22;13825;53.496;10.020;2023-06-26T00:45:30;19.10;99.90
26051;DHT22;13825;53.496;10.020;2023-06-26T00:47:58;19.10;99.90
26051;DHT22;13825;53.496;10.020;2023-06-26T00:50:25;19.00;99.90
26051;DHT22;13825;53.496;10.020;2023-06-26T00:52:52;18.90;99.90
26051;DHT22;13825;53.496;10.020;2023-06-26T00:55:22;18.90;99.90
26051;DHT22;13825;53.496;10.020;2023-06-26T00:57:49;18.80;99.90
26051;DHT22;13825;53.496;10.020;2023-06-26T01:00:19;18.80;99.90
26051;DHT22;13825;53.496;10.020;2023-06-26T01:02:46;18.80;99.90
26051;DHT22;13825;53.496;10.020;2023-06-26T01:05:17;18.70;99.90
26051;DHT22;13825;53.496;10.020;2023-06-26T01:07:49;18.70;99.90
26051;DHT22;13825;53.496;10.020;2023-06-26T01:10:17;18.70;99.90
26051;DHT22;13825;53.496;10.020;2023-06-26T01:12:45;18.60;99.90
26051;DHT22;13825;53.496;10.020;2023-06-26T01:15:12;18.60;99.90
26051;DHT22;13825;53.496;10.020;2023-06-26T01:17:39;18.60;99.90
26051;DHT22;13825;53.496;10.020;2023-06-26T01:20:10;18.60;99.90
26051;DHT22;13825;53.496;10.020;2023-06-26T01:22:45;18.60;99.90
26051;DHT22;13825;53.496;10.020;2023-06-26T01:25:23;18.60;99.90
26051;DHT22;13825;53.496;10.020;2023-06-26T01:27:58;18.50;99.90
26051;DHT22;13825;53.496;10.020;2023-06-26T01:30:25;18.50;99.90
26051;DHT22;13825;53.496;10.020;2023-06-26T01:32:52;18.50;99.90
26051;DHT22;13825;53.496;10.020;2023-06-26T01:35:19;18.40;99.90
26051;DHT22;13825;53.496;10.020;2023-06-26T01:37:47;18.40;99.90
26051;DHT22;13825;53.496;10.020;2023-06-26T01:40:13;18.40;99.90
26051;DHT22;13825;53.496;10.020;2023-06-26T01:42:40;18.40;99.90
26051;DHT22;13825;53.496;10.020;2023-06-26T01:45:12;18.40;99.90
26051;DHT22;13825;53.496;10.020;2023-06-26T01:47:44;18.30;99.90
26051;DHT22;13825;53.496;10.020;2023-06-26T01:50:18;18.30;99.90
26051;DHT22;13825;53.496;10.020;2023-06-26T01:52:56;18.30;99.90
26051;DHT22;13825;53.496;10.020;2023-06-26T01:55:28;18.40;99.90
26051;DHT22;13825;53.496;10.020;2023-06-26T01:57:59;18.30;99.90
26051;DHT22;13825;53.496;10.020;2023-06-26T02:00:28;18.30;99.90
26051;DHT22;13825;53.496;10.020;2023-06-26T02:02:55;18.30;99.90
26051;DHT22;13825;53.496;10.020;2023-06-26T02:05:23;18.30;99.90
26051;DHT22;13825;53.496;10.020;2023-06-26T02:07:50;18.40;99.90
26051;DHT22;13825;53.496;10.020;2023-06-26T02:10:18;18.40;99.90
26051;DHT22;13825;53.496;10.020;2023-06-26T02:12:45;18.40;99.90
26051;DHT22;13825;53.496;10.020;2023-06-26T02:15:12;18.40;99.90
26051;DHT22;13825;53.496;10.020;2023-06-26T02:17:40;18.40;99.90
26051;DHT22;13825;53.496;10.020;2023-06-26T02:20:08;18.40;99.90
26051;DHT22;13825;53.496;10.020;2023-06-26T02:22:35;18.30;99.90
26051;DHT22;13825;53.496;10.020;2023-06-26T02:25:03;18.20;99.90
26051;DHT22;13825;53.496;10.020;2023-06-26T02:27:30;18.20;99.90
26051;DHT22;13825;53.496;10.020;2023-06-26T02:29:57;18.20;99.90
26051;DHT22;13825;53.496;10.020;2023-06-26T02:32:23;18.20;99.90
26051;DHT22;13825;53.496;10.020;2023-06-26T02:34:52;18.20;99.90
26051;DHT22;13825;53.496;10.020;2023-06-26T02:37:19;18.10;99.90
26051;DHT22;13825;53.496;10.020;2023-06-26T02:39:46;18.10;99.90
26051;DHT22;13825;53.496;10.020;2023-06-26T02:42:13;18.10;99.90
26051;DHT22;13825;53.496;10.020;2023-06-26T02:44:40;18.10;99.90
26051;DHT22;13825;53.496;10.020;2023-06-26T02:47:07;18.10;99.90
26051;DHT22;13825;53.496;10.020;2023-06-26T02:49:34;18.10;99.90
26051;DHT22;13825;53.496;10.020;2023-06-26T02:52:03;18.00;99.90
26051;DHT22;13825;53.496;10.020;2023-06-26T02:54:30;18.00;99.90
26051;DHT22;13825;53.496;10.020;2023-06-26T02:56:58;18.00;99.90
26051;DHT22;13825;53.496;10.020;2023-06-26T02:59:25;18.00;99.90
26051;DHT22;13825;53.496;10.020;2023-06-26T03:01:52;18.00;99.90
26051;DHT22;13825;53.496;10.020;2023-06-26T03:04:19;18.00;99.90
26051;DHT22;13825;53.496;10.020;2023-06-26T03:06:46;18.00;99.90
26051;DHT22;13825;53.496;10.020;2023-06-26T03:09:15;18.00;99.90
26051;DHT22;13825;53.496;10.020;2023-06-26T03:11:42;18.10;99.90
26051;DHT22;13825;53.496;10.020;2023-06-26T03:14:09;18.00;99.90
26051;DHT22;13825;53.496;10.020;2023-06-26T03:16:36;18.00;99.90
26051;DHT22;13825;53.496;10.020;2023-06-26T03:19:03;18.00;99.90
26051;DHT22;13825;53.496;10.020;2023-06-26T03:21:30;18.00;99.90
26051;DHT22;13825;53.496;10.020;2023-06-26T03:23:57;18.00;99.90
26051;DHT22;13825;53.496;10.020;2023-06-26T03:26:25;18.00;99.90
26051;DHT22;13825;53.496;10.020;2023-06-26T03:28:54;18.00;99.90
26051;DHT22;13825;53.496;10.020;2023-06-26T03:31:21;18.00;99.90
26051;DHT22;13825;53.496;10.020;2023-06-26T03:33:48;18.00;99.90
26051;DHT22;13825;53.496;10.020;2023-06-26T03:36:14;18.00;99.90
26051;DHT22;13825;53.496;10.020;2023-06-26T03:38:41;18.10;99.90
26051;DHT22;13825;53.496;10.020;2023-06-26T03:41:08;18.10;99.90
26051;DHT22;13825;53.496;10.020;2023-06-26T03:43:38;18.10;99.90
26051;DHT22;13825;53.496;10.020;2023-06-26T03:46:05;18.10;99.90
26051;DHT22;13825;53.496;10.020;2023-06-26T03:48:32;18.10;99.90
26051;DHT22;13825;53.496;10.020;2023-06-26T03:51:01;18.20;99.90
26051;DHT22;13825;53.496;10.020;2023-06-26T03:53:28;18.30;99.90
26051;DHT22;13825;53.496;10.020;2023-06-26T03:55:55;18.30;99.90
26051;DHT22;13825;53.496;10.020;2023-06-26T03:58:22;18.30;99.90
26051;DHT22;13825;53.496;10.020;2023-06-26T04:00:50;18.30;99.90
26051;DHT22;13825;53.496;10.020;2023-06-26T04:03:17;18.40;99.90
26051;DHT22;13825;53.496;10.020;2023-06-26T04:05:44;18.40;99.90
26051;DHT22;13825;53.496;10.020;2023-06-26T04:08:11;18.40;99.90
26051;DHT22;13825;53.496;10.020;2023-06-26T04:10:38;18.60;99.90
26051;DHT22;13825;53.496;10.020;2023-06-26T04:13:05;18.60;99.90
26051;DHT22;13825;53.496;10.020;2023-06-26T04:15:32;18.60;99.90
26051;DHT22;13825;53.496;10.020;2023-06-26T04:18:00;18.70;99.90
26051;DHT22;13825;53.496;10.020;2023-06-26T04:20:28;18.70;99.90
26051;DHT22;13825;53.496;10.020;2023-06-26T04:22:55;18.80;99.90
26051;DHT22;13825;53.496;10.020;2023-06-26T04:25:22;18.90;99.90
26051;DHT22;13825;53.496;10.020;2023-06-26T04:27:49;19.00;99.90
26051;DHT22;13825;53.496;10.020;2023-06-26T04:30:16;19.00;99.90
26051;DHT22;13825;53.496;10.020;2023-06-26T04:32:43;19.00;99.90
26051;DHT22;13825;53.496;10.020;2023-06-26T04:35:11;19.00;99.90
26051;DHT22;13825;53.496;10.020;2023-06-26T04:37:39;19.10;99.90
26051;DHT22;13825;53.496;10.020;2023-06-26T04:40:07;19.20;99.90
26051;DHT22;13825;53.496;10.020;2023-06-26T04:42:36;19.20;99.90
26051;DHT22;13825;53.496;10.020;2023-06-26T04:45:04;19.30;99.90
26051;DHT22;13825;53.496;10.020;2023-06-26T04:47:31;19.30;99.90
26051;DHT22;13825;53.496;10.020;2023-06-26T04:49:58;19.40;99.90
26051;DHT22;13825;53.496;10.020;2023-06-26T04:52:26;19.40;99.90
26051;DHT22;13825;53.496;10.020;2023-06-26T04:54:53;19.50;99.90
26051;DHT22;13825;53.496;10.020;2023-06-26T04:57:20;19.50;99.90
26051;DHT22;13825;53.496;10.020;2023-06-26T04:59:46;19.60;99.90
26051;DHT22;13825;53.496;10.020;2023-06-26T05:02:13;19.70;99.90
26051;DHT22;13825;53.496;10.020;2023-06-26T05:04:41;19.70;99.90
26051;DHT22;13825;53.496;10.020;2023-06-26T05:07:08;19.80;99.90
26051;DHT22;13825;53.496;10.020;2023-06-26T05:09:36;20.00;99.90
26051;DHT22;13825;53.496;10.020;2023-06-26T05:12:03;20.00;99.90
26051;DHT22;13825;53.496;10.020;2023-06-26T05:14:30;20.20;99.90
26051;DHT22;13825;53.496;10.020;2023-06-26T05:16:57;20.30;99.90
26051;DHT22;13825;53.496;10.020;2023-06-26T05:19:24;20.30;99.90
26051;DHT22;13825;53.496;10.020;2023-06-26T05:21:52;20.30;99.90
26051;DHT22;13825;53.496;10.020;2023-06-26T05:24:19;20.50;99.90
26051;DHT22;13825;53.496;10.020;2023-06-26T05:26:49;20.60;99.90
26051;DHT22;13825;53.496;10.020;2023-06-26T05:29:17;20.70;99.90
26051;DHT22;13825;53.496;10.020;2023-06-26T05:31:45;20.70;99.90
26051;DHT22;13825;53.496;10.020;2023-06-26T05:34:13;20.80;99.90
26051;DHT22;13825;53.496;10.020;2023-06-26T05:36:41;20.90;99.90
26051;DHT22;13825;53.496;10.020;2023-06-26T05:39:10;20.90;99.90
26051;DHT22;13825;53.496;10.020;2023-06-26T05:41:37;21.00;99.90
26051;DHT22;13825;53.496;10.020;2023-06-26T05:44:05;21.20;99.90
26051;DHT22;13825;53.496;10.020;2023-06-26T05:46:32;21.30;99.90
26051;DHT22;13825;53.496;10.020;2023-06-26T05:48:59;21.40;99.90
26051;DHT22;13825;53.496;10.020;2023-06-26T05:51:27;21.50;99.90
26051;DHT22;13825;53.496;10.020;2023-06-26T05:53:57;21.60;99.90
26051;DHT22;13825;53.496;10.020;2023-06-26T05:56:24;21.70;99.90
26051;DHT22;13825;53.496;10.020;2023-06-26T05:58:52;21.90;99.90
26051;DHT22;13825;53.496;10.020;2023-06-26T06:01:42;21.90;99.90
26051;DHT22;13825;53.496;10.020;2023-06-26T06:04:24;22.00;99.90
26051;DHT22;13825;53.496;10.020;2023-06-26T06:07:34;22.10;99.90
26051;DHT22;13825;53.496;10.020;2023-06-26T06:10:02;22.20;99.90
26051;DHT22;13825;53.496;10.020;2023-06-26T06:12:34;22.30;99.90
26051;DHT22;13825;53.496;10.020;2023-06-26T06:15:01;22.40;99.90
26051;DHT22;13825;53.496;10.020;2023-06-26T06:17:29;22.50;99.90
26051;DHT22;13825;53.496;10.020;2023-06-26T06:19:56;22.60;99.90
26051;DHT22;13825;53.496;10.020;2023-06-26T06:22:23;22.70;99.90
26051;DHT22;13825;53.496;10.020;2023-06-26T06:26:03;22.80;99.90
26051;DHT22;13825;53.496;10.020;2023-06-26T06:28:28;22.90;99.90
26051;DHT22;13825;53.496;10.020;2023-06-26T06:31:02;23.00;99.90
26051;DHT22;13825;53.496;10.020;2023-06-26T06:44:17;23.50;99.90
26051;DHT22;13825;53.496;10.020;2023-06-26T06:46:47;23.60;99.90
26051;DHT22;13825;53.496;10.020;2023-06-26T06:49:27;23.60;99.90
26051;DHT22;13825;53.496;10.020;2023-06-26T06:52:17;23.70;99.90
26051;DHT22;13825;53.496;10.020;2023-06-26T06:55:04;23.80;99.90
26051;DHT22;13825;53.496;10.020;2023-06-26T07:17:40;24.60;99.90
26051;DHT22;13825;53.496;10.020;2023-06-26T07:25:12;24.90;99.90
26051;DHT22;13825;53.496;10.020;2023-06-26T07:37:52;25.60;99.90
26051;DHT22;13825;53.496;10.020;2023-06-26T07:41:11;26.00;99.90
26051;DHT22;13825;53.496;10.020;2023-06-26T07:47:09;26.60;85.80
26051;DHT22;13825;53.496;10.020;2023-06-26T08:06:35;26.90;56.80
26051;DHT22;13825;53.496;10.020;2023-06-26T08:12:19;27.40;52.90
26051;DHT22;13825;53.496;10.020;2023-06-26T08:14:46;27.70;41.50
26051;DHT22;13825;53.496;10.020;2023-06-26T08:17:13;27.90;39.90
26051;DHT22;13825;53.496;10.020;2023-06-26T08:19:40;28.00;36.30
26051;DHT22;13825;53.496;10.020;2023-06-26T08:22:08;27.80;37.60
26051;DHT22;13825;53.496;10.020;2023-06-26T08:27:17;27.90;40.30
26051;DHT22;13825;53.496;10.020;2023-06-26T08:28:31;27.70;39.60
26051;DHT22;13825;53.496;10.020;2023-06-26T08:45:34;28.70;19.70
26051;DHT22;13825;53.496;10.020;2023-06-26T09:23:02;27.60;36.90
26051;DHT22;13825;53.496;10.020;2023-06-26T09:25:29;27.90;33.00
26051;DHT22;13825;53.496;10.020;2023-06-26T09:27:56;27.60;34.20
26051;DHT22;13825;53.496;10.020;2023-06-26T09:30:24;27.40;35.90
26051;DHT22;13825;53.496;10.020;2023-06-26T09:32:51;27.30;40.40
26051;DHT22;13825;53.496;10.020;2023-06-26T09:35:20;27.60;38.00
26051;DHT22;13825;53.496;10.020;2023-06-26T09:37:53;28.00;36.30
26051;DHT22;13825;53.496;10.020;2023-06-26T09:40:23;28.10;32.70
26051;DHT22;13825;53.496;10.020;2023-06-26T09:42:50;27.80;34.90
26051;DHT22;13825;53.496;10.020;2023-06-26T09:45:20;27.50;38.50
26051;DHT22;13825;53.496;10.020;2023-06-26T09:47:47;27.10;46.50
26051;DHT22;13825;53.496;10.020;2023-06-26T09:50:23;26.80;45.90
26051;DHT22;13825;53.496;10.020;2023-06-26T09:52:52;26.40;52.40
26051;DHT22;13825;53.496;10.020;2023-06-26T09:55:21;26.40;55.80
26051;DHT22;13825;53.496;10.020;2023-06-26T09:57:50;26.10;53.80
26051;DHT22;13825;53.496;10.020;2023-06-26T10:00:18;25.90;49.10
26051;DHT22;13825;53.496;10.020;2023-06-26T10:02:45;25.60;51.60
26051;DHT22;13825;53.496;10.020;2023-06-26T10:05:19;25.20;58.60
26051;DHT22;13825;53.496;10.020;2023-06-26T10:07:46;24.90;63.70
26051;DHT22;13825;53.496;10.020;2023-06-26T10:10:15;24.80;73.50
26051;DHT22;13825;53.496;10.020;2023-06-26T10:12:49;24.40;97.90
26051;DHT22;13825;53.496;10.020;2023-06-26T10:15:18;23.80;99.90
26051;DHT22;13825;53.496;10.020;2023-06-26T10:17:46;23.50;99.90
26051;DHT22;13825;53.496;10.020;2023-06-26T10:20:15;23.20;99.90
26051;DHT22;13825;53.496;10.020;2023-06-26T10:22:44;22.90;99.90
26051;DHT22;13825;53.496;10.020;2023-06-26T10:25:18;22.10;99.90
26051;DHT22;13825;53.496;10.020;2023-06-26T10:27:51;21.40;99.90
26051;DHT22;13825;53.496;10.020;2023-06-26T10:30:26;20.90;99.90
26051;DHT22;13825;53.496;10.020;2023-06-26T10:32:55;20.60;99.90
26051;DHT22;13825;53.496;10.020;2023-06-26T10:35:24;20.40;99.90
26051;DHT22;13825;53.496;10.020;2023-06-26T10:38:00;20.30;99.90
26051;DHT22;13825;53.496;10.020;2023-06-26T10:40:39;20.30;99.90
26051;DHT22;13825;53.496;10.020;2023-06-26T10:43:15;20.20;99.90
26051;DHT22;13825;53.496;10.020;2023-06-26T10:45:47;20.20;99.90
26051;DHT22;13825;53.496;10.020;2023-06-26T10:48:18;20.20;99.90
26051;DHT22;13825;53.496;10.020;2023-06-26T10:51:13;20.20;99.90
26051;DHT22;13825;53.496;10.020;2023-06-26T10:53:40;20.30;99.90
26051;DHT22;13825;53.496;10.020;2023-06-26T10:56:10;20.20;99.90
26051;DHT22;13825;53.496;10.020;2023-06-26T10:58:43;20.20;99.90
26051;DHT22;13825;53.496;10.020;2023-06-26T11:01:20;20.20;99.90
26051;DHT22;13825;53.496;10.020;2023-06-26T11:03:48;20.30;99.90
26051;DHT22;13825;53.496;10.020;2023-06-26T11:06:27;20.40;99.90
26051;DHT22;13825;53.496;10.020;2023-06-26T11:09:00;20.60;99.90
26051;DHT22;13825;53.496;10.020;2023-06-26T11:14:35;20.90;99.90
26051;DHT22;13825;53.496;10.020;2023-06-26T11:17:05;21.30;99.90
26051;DHT22;13825;53.496;10.020;2023-06-26T11:19:37;21.40;99.90
26051;DHT22;13825;53.496;10.020;2023-06-26T11:22:18;21.60;99.90
26051;DHT22;13825;53.496;10.020;2023-06-26T11:24:46;21.40;99.90
26051;DHT22;13825;53.496;10.020;2023-06-26T11:27:15;21.30;99.90
26051;DHT22;13825;53.496;10.020;2023-06-26T11:29:49;21.30;99.90
26051;DHT22;13825;53.496;10.020;2023-06-26T11:32:16;21.50;99.90
26051;DHT22;13825;53.496;10.020;2023-06-26T11:34:43;21.50;99.90
26051;DHT22;13825;53.496;10.020;2023-06-26T11:37:10;21.70;99.90
26051;DHT22;13825;53.496;10.020;2023-06-26T11:39:42;21.70;99.90
26051;DHT22;13825;53.496;10.020;2023-06-26T11:42:11;22.00;99.90
26051;DHT22;13825;53.496;10.020;2023-06-26T11:44:42;22.00;99.90
26051;DHT22;13825;53.496;10.020;2023-06-26T11:47:14;22.40;99.90
26051;DHT22;13825;53.496;10.020;2023-06-26T11:49:42;22.50;99.90
26051;DHT22;13825;53.496;10.020;2023-06-26T11:52:18;22.40;99.90
26051;DHT22;13825;53.496;10.020;2023-06-26T11:54:45;22.60;99.90
26051;DHT22;13825;53.496;10.020;2023-06-26T11:57:14;22.40;99.90
26051;DHT22;13825;53.496;10.020;2023-06-26T11:59:43;22.50;99.90
26051;DHT22;13825;53.496;10.020;2023-06-26T12:02:14;22.70;99.90
26051;DHT22;13825;53.496;10.020;2023-06-26T12:04:44;22.70;99.90
26051;DHT22;13825;53.496;10.020;2023-06-26T12:07:15;22.30;99.90
26051;DHT22;13825;53.496;10.020;2023-06-26T12:09:44;22.10;99.90
26051;DHT22;13825;53.496;10.020;2023-06-26T12:12:17;21.90;99.90
26051;DHT22;13825;53.496;10.020;2023-06-26T12:14:44;21.70;99.90
26051;DHT22;13825;53.496;10.020;2023-06-26T12:17:13;21.60;99.90
26051;DHT22;13825;53.496;10.020;2023-06-26T12:19:48;22.30;99.90
26051;DHT22;13825;53.496;10.020;2023-06-26T12:22:18;22.30;99.90
26051;DHT22;13825;53.496;10.020;2023-06-26T12:24:49;22.40;99.90
26051;DHT22;13825;53.496;10.020;2023-06-26T12:27:22;23.00;99.90
26051;DHT22;13825;53.496;10.020;2023-06-26T12:29:55;23.10;94.60
26051;DHT22;13825;53.496;10.020;2023-06-26T12:32:23;23.10;76.20
26051;DHT22;13825;53.496;10.020;2023-06-26T12:34:52;23.40;85.30
26051;DHT22;13825;53.496;10.020;2023-06-26T12:37:20;23.60;61.90
26051;DHT22;13825;53.496;10.020;2023-06-26T12:39:53;23.80;69.30
26051;DHT22;13825;53.496;10.020;2023-06-26T12:42:24;23.60;54.70
26051;DHT22;13825;53.496;10.020;2023-06-26T12:44:52;23.60;58.00
26051;DHT22;13825;53.496;10.020;2023-06-26T12:47:24;23.60;56.00
26051;DHT22;13825;53.496;10.020;2023-06-26T12:50:05;23.40;43.00
26051;DHT22;13825;53.496;10.020;2023-06-26T12:52:35;23.40;45.40
26051;DHT22;13825;53.496;10.020;2023-06-26T12:55:02;23.60;39.70
26051;DHT22;13825;53.496;10.020;2023-06-26T12:57:29;24.10;47.10
26051;DHT22;13825;53.496;10.020;2023-06-26T12:59:56;24.20;33.70
26051;DHT22;13825;53.496;10.020;2023-06-26T13:02:26;24.50;41.40
26051;DHT22;13825;53.496;10.020;2023-06-26T13:04:54;24.80;28.20
26051;DHT22;13825;53.496;10.020;2023-06-26T13:07:21;25.00;30.10
26051;DHT22;13825;53.496;10.020;2023-06-26T13:10:05;24.50;28.80
26051;DHT22;13825;53.496;10.020;2023-06-26T13:12:37;24.50;31.40
26051;DHT22;13825;53.496;10.020;2023-06-26T13:15:05;24.30;28.10
26051;DHT22;13825;53.496;10.020;2023-06-26T13:17:32;24.40;29.40
26051;DHT22;13825;53.496;10.020;2023-06-26T13:20:01;24.50;20.80
26051;DHT22;13825;53.496;10.020;2023-06-26T13:22:34;24.40;28.90
26051;DHT22;13825;53.496;10.020;2023-06-26T13:25:01;24.50;15.80
26051;DHT22;13825;53.496;10.020;2023-06-26T13:27:31;24.80;23.80
26051;DHT22;13825;53.496;10.020;2023-06-26T13:29:58;24.70;17.30
26051;DHT22;13825;53.496;10.020;2023-06-26T13:32:27;24.50;18.90
26051;DHT22;13825;53.496;10.020;2023-06-26T13:35:01;24.40;23.60
26051;DHT22;13825;53.496;10.020;2023-06-26T13:37:29;24.60;19.20
26051;DHT22;13825;53.496;10.020;2023-06-26T13:39:56;24.60;6.10
26051;DHT22;13825;53.496;10.020;2023-06-26T13:42:25;25.00;4.40
26051;DHT22;13825;53.496;10.020;2023-06-26T13:44:52;24.90;7.50
26051;DHT22;13825;53.496;10.020;2023-06-26T13:47:19;24.80;22.90
26051;DHT22;13825;53.496;10.020;2023-06-26T13:49:47;24.50;3.50
26051;DHT22;13825;53.496;10.020;2023-06-26T13:52:15;24.60;4.80
26051;DHT22;13825;53.496;10.020;2023-06-26T13:54:43;24.70;1.00
26051;DHT22;13825;53.496;10.020;2023-06-26T13:57:10;24.40;5.90
26051;DHT22;13825;53.496;10.020;2023-06-26T13:59:39;24.30;1.00
26051;DHT22;13825;53.496;10.020;2023-06-26T14:02:09;24.10;4.00
26051;DHT22;13825;53.496;10.020;2023-06-26T14:04:36;23.90;10.00
26051;DHT22;13825;53.496;10.020;2023-06-26T14:07:04;23.70;8.40
26051;DHT22;13825;53.496;10.020;2023-06-26T14:09:35;24.40;1.00
26051;DHT22;13825;53.496;10.020;2023-06-26T14:12:03;24.10;1.00
26051;DHT22;13825;53.496;10.020;2023-06-26T14:14:30;23.90;1.00
26051;DHT22;13825;53.496;10.020;2023-06-26T14:16:57;23.70;1.00
26051;DHT22;13825;53.496;10.020;2023-06-26T14:19:25;23.60;1.00
26051;DHT22;13825;53.496;10.020;2023-06-26T14:21:53;23.70;1.00
26051;DHT22;13825;53.496;10.020;2023-06-26T14:24:23;23.80;1.00
26051;DHT22;13825;53.496;10.020;2023-06-26T14:26:53;24.20;1.00
26051;DHT22;13825;53.496;10.020;2023-06-26T14:29:22;24.90;1.00
26051;DHT22;13825;53.496;10.020;2023-06-26T14:31:49;25.40;69.40
26051;DHT22;13825;53.496;10.020;2023-06-26T14:34:24;26.50;36.30
26051;DHT22;13825;53.496;10.020;2023-06-26T14:36:54;26.50;26.40
26051;DHT22;13825;53.496;10.020;2023-06-26T14:39:21;26.90;17.00
26051;DHT22;13825;53.496;10.020;2023-06-26T14:41:54;26.90;18.40
26051;DHT22;13825;53.496;10.020;2023-06-26T14:44:22;26.70;4.60
26051;DHT22;13825;53.496;10.020;2023-06-26T14:46:49;25.80;5.90
26051;DHT22;13825;53.496;10.020;2023-06-26T14:49:16;25.20;11.20
26051;DHT22;13825;53.496;10.020;2023-06-26T14:51:44;25.40;9.60
26051;DHT22;13825;53.496;10.020;2023-06-26T14:54:11;25.70;7.40
26051;DHT22;13825;53.496;10.020;2023-06-26T14:56:38;25.30;9.80
26051;DHT22;13825;53.496;10.020;2023-06-26T14:59:09;25.60;5.70
26051;DHT22;13825;53.496;10.020;2023-06-26T15:01:36;25.10;1.00
26051;DHT22;13825;53.496;10.020;2023-06-26T15:04:05;24.20;2.30
26051;DHT22;13825;53.496;10.020;2023-06-26T15:06:38;23.50;2.70
26051;DHT22;13825;53.496;10.020;2023-06-26T15:09:08;23.20;4.70
26051;DHT22;13825;53.496;10.020;2023-06-26T15:11:35;23.40;5.80
26051;DHT22;13825;53.496;10.020;2023-06-26T15:14:03;23.90;23.60
26051;DHT22;13825;53.496;10.020;2023-06-26T15:16:38;25.10;7.30
26051;DHT22;13825;53.496;10.020;2023-06-26T15:19:05;25.90;2.70
26051;DHT22;13825;53.496;10.020;2023-06-26T15:21:34;26.90;1.00
26051;DHT22;13825;53.496;10.020;2023-06-26T15:24:03;27.00;1.00
26051;DHT22;13825;53.496;10.020;2023-06-26T15:26:36;26.50;1.00
26051;DHT22;13825;53.496;10.020;2023-06-26T15:29:03;25.60;1.00
26051;DHT22;13825;53.496;10.020;2023-06-26T15:31:34;24.50;1.00
26051;DHT22;13825;53.496;10.020;2023-06-26T15:34:02;23.70;3.20
26051;DHT22;13825;53.496;10.020;2023-06-26T16:57:53;22.30;68.30
26051;DHT22;13825;53.496;10.020;2023-06-26T17:25:58;24.00;99.90
26051;DHT22;13825;53.496;10.020;2023-06-26T18:33:47;20.10;99.90
26051;DHT22;13825;53.496;10.020;2023-06-26T18:36:14;20.00;1.00
26051;DHT22;13825;53.496;10.020;2023-06-26T18:38:41;20.70;99.90
26051;DHT22;13825;53.496;10.020;2023-06-26T18:41:14;21.40;1.00
26051;DHT22;13825;53.496;10.020;2023-06-26T18:43:42;21.40;1.00
26051;DHT22;13825;53.496;10.020;2023-06-26T18:46:12;22.00;99.90
26051;DHT22;13825;53.496;10.020;2023-06-26T18:48:40;22.40;99.90
26051;DHT22;13825;53.496;10.020;2023-06-26T18:51:11;22.20;99.90
26051;DHT22;13825;53.496;10.020;2023-06-26T18:53:38;22.10;99.90
26051;DHT22;13825;53.496;10.020;2023-06-26T18:56:13;21.60;99.90
26051;DHT22;13825;53.496;10.020;2023-06-26T18:58:42;21.10;99.90
26051;DHT22;13825;53.496;10.020;2023-06-26T19:01:09;20.50;1.00
26051;DHT22;13825;53.496;10.020;2023-06-26T19:03:36;20.10;99.90
26051;DHT22;13825;53.496;10.020;2023-06-26T19:06:03;19.90;99.90
26051;DHT22;13825;53.496;10.020;2023-06-26T19:08:32;19.70;99.90
26051;DHT22;13825;53.496;10.020;2023-06-26T19:10:59;19.60;1.00
26051;DHT22;13825;53.496;10.020;2023-06-26T19:13:28;19.40;1.00
26051;DHT22;13825;53.496;10.020;2023-06-26T19:15:59;19.20;1.00
26051;DHT22;13825;53.496;10.020;2023-06-26T19:18:28;19.10;1.00
26051;DHT22;13825;53.496;10.020;2023-06-26T19:20:55;19.00;99.90
26051;DHT22;13825;53.496;10.020;2023-06-26T19:23:22;18.80;1.00
26051;DHT22;13825;53.496;10.020;2023-06-26T19:25:52;18.70;1.00
26051;DHT22;13825;53.496;10.020;2023-06-26T19:28:19;18.70;99.90
26051;DHT22;13825;53.496;10.020;2023-06-26T19:30:46;18.50;99.90
26051;DHT22;13825;53.496;10.020;2023-06-26T19:33:13;18.60;1.00
26051;DHT22;13825;53.496;10.020;2023-06-26T19:35:40;18.40;1.00
26051;DHT22;13825;53.496;10.020;2023-06-26T19:38:09;18.40;36.40
26051;DHT22;13825;53.496;10.020;2023-06-26T19:40:36;18.30;99.90
26051;DHT22;13825;53.496;10.020;2023-06-26T19:43:05;18.30;89.40
26051;DHT22;13825;53.496;10.020;2023-06-26T19:45:33;18.30;99.90
26051;DHT22;13825;53.496;10.020;2023-06-26T19:48:00;18.30;99.90
26051;DHT22;13825;53.496;10.020;2023-06-26T19:50:27;18.30;99.90
26051;DHT22;13825;53.496;10.020;2023-06-26T19:52:54;18.30;99.90
26051;DHT22;13825;53.496;10.020;2023-06-26T19:55:21;18.20;99.90
26051;DHT22;13825;53.496;10.020;2023-06-26T19:57:48;18.20;99.90
26051;DHT22;13825;53.496;10.020;2023-06-26T20:00:19;18.30;99.90
26051;DHT22;13825;53.496;10.020;2023-06-26T20:02:49;18.30;99.90
26051;DHT22;13825;53.496;10.020;2023-06-26T20:05:18;18.20;99.90
26051;DHT22;13825;53.496;10.020;2023-06-26T20:07:45;18.00;99.90
26051;DHT22;13825;53.496;10.020;2023-06-26T20:10:14;18.10;1.00
26051;DHT22;13825;53.496;10.020;2023-06-26T20:12:45;18.10;1.00
26051;DHT22;13825;53.496;10.020;2023-06-26T20:15:12;18.10;1.00
26051;DHT22;13825;53.496;10.020;2023-06-26T20:17:41;18.10;1.00
26051;DHT22;13825;53.496;10.020;2023-06-26T20:20:11;18.20;1.00
26051;DHT22;13825;53.496;10.020;2023-06-26T20:22:51;18.20;1.00
26051;DHT22;13825;53.496;10.020;2023-06-26T20:25:18;18.10;1.00
26051;DHT22;13825;53.496;10.020;2023-06-26T20:27:45;18.10;1.00